Time;durP1;ratioP1;P1;durP2;ratioP2;P2;SDS_P1;SDS_P2;PMS_P1;PMS_P2;Temp;Humidity;BMP_temperature;BMP_pressure;BME280_temperature;BME280_humidity;BME280_pressure;Samples;Min_cycle;Max_cycle;Signal;HPM_P1;HPM_P2
2022/06/28 00:02:51;;;;;;;8.63;6.63;;;;;;;22.17;69.05;101645.47;10449307;28;20045;-76
2022/06/28 00:07:53;;;;;;;7.82;6.30;;;;;;;22.08;69.76;101652.28;10456394;28;20036;-78
2022/06/28 00:12:56;;;;;;;6.35;5.50;;;;;;;22.02;69.83;101661.94;10427467;28;20052;-76
2022/06/28 00:17:58;;;;;;;8.30;5.95;;;;;;;21.90;69.99;101659.88;10445832;28;20053;-77
2022/06/28 00:23:01;;;;;;;9.32;5.80;;;;;;;21.81;70.37;101668.25;10478098;28;20048;-76
2022/06/28 00:28:03;;;;;;;8.55;6.18;;;;;;;21.68;70.63;101666.47;10441776;28;20045;-76
2022/06/28 00:33:06;;;;;;;8.85;7.28;;;;;;;21.55;70.72;101667.50;10444600;28;20558;-77
2022/06/28 00:38:08;;;;;;;8.25;5.70;;;;;;;21.39;70.46;101677.53;10440433;28;20068;-75
2022/06/28 00:43:11;;;;;;;4.55;4.15;;;;;;;21.24;70.45;101668.50;10519935;28;20040;-76
2022/06/28 00:48:16;;;;;;;6.95;5.25;;;;;;;21.21;69.57;101662.72;10453446;28;20049;-75
2022/06/28 00:53:18;;;;;;;5.75;4.72;;;;;;;21.12;70.02;101664.69;10432528;28;20068;-75
2022/06/28 00:58:21;;;;;;;9.77;5.97;;;;;;;20.95;70.23;101662.69;10466371;28;20547;-75
2022/06/28 01:03:23;;;;;;;9.07;6.35;;;;;;;20.78;70.47;101667.09;10483258;28;20419;-75
2022/06/28 01:08:27;;;;;;;6.30;5.00;;;;;;;20.67;70.22;101660.19;10451437;28;20044;-75
2022/06/28 01:13:32;;;;;;;6.40;3.92;;;;;;;20.66;69.74;101674.47;10482631;28;20060;-76
2022/06/28 01:18:34;;;;;;;8.45;5.75;;;;;;;20.58;69.46;101667.69;10466040;28;20041;-75
2022/06/28 01:23:56;;;;;;;9.27;5.07;;;;;;;20.50;69.42;101671.31;10448374;28;20041;-75
2022/06/28 01:29:11;;;;;;;6.68;5.32;;;;;;;20.49;69.39;101672.44;10445266;28;20415;-75
2022/06/28 01:34:26;;;;;;;8.73;5.00;;;;;;;20.41;68.93;101689.94;10475871;28;20045;-75
2022/06/28 01:39:29;;;;;;;4.88;4.38;;;;;;;20.43;68.39;101682.09;10451114;28;20064;-75
2022/06/28 01:44:31;;;;;;;7.15;5.10;;;;;;;20.35;68.35;101685.66;10443861;28;20040;-75
2022/06/28 01:49:42;;;;;;;4.88;3.05;;;;;;;20.23;68.47;101688.22;10449474;28;20053;-75
2022/06/28 01:54:46;;;;;;;7.15;4.90;;;;;;;20.20;67.36;101694.44;10464271;28;20045;-76
2022/06/28 01:59:48;;;;;;;6.65;3.97;;;;;;;20.18;67.42;101686.38;10442848;28;20052;-75
2022/06/28 02:05:07;;;;;;;8.18;4.65;;;;;;;20.36;67.35;101692.88;10463771;28;20049;-76
2022/06/28 02:10:10;;;;;;;5.63;4.10;;;;;;;20.47;66.56;101702.59;10470298;28;20033;-76
2022/06/28 02:15:13;;;;;;;6.03;4.20;;;;;;;20.45;66.03;101714.06;10464735;28;20048;-76
2022/06/28 02:20:17;;;;;;;5.28;4.05;;;;;;;20.46;66.06;101717.69;10482685;28;20052;-76
2022/06/28 02:25:20;;;;;;;4.55;3.72;;;;;;;20.74;64.66;101716.31;10468582;28;20053;-75
2022/06/28 02:30:23;;;;;;;5.47;3.90;;;;;;;20.99;63.88;101725.88;10453436;28;20381;-75
2022/06/28 02:40:47;;;;;;;3.47;2.83;;;;;;;21.00;63.16;101730.34;10469051;28;20610;-76
2022/06/28 02:45:50;;;;;;;5.63;3.17;;;;;;;21.14;61.76;101752.50;10465672;28;20045;-75
2022/06/28 02:50:52;;;;;;;5.97;3.35;;;;;;;21.14;61.78;101735.75;10460777;28;20056;-78
2022/06/28 02:55:55;;;;;;;4.80;3.40;;;;;;;21.08;60.48;101726.75;10477506;28;20040;-78
2022/06/28 03:00:57;;;;;;;3.13;2.30;;;;;;;21.13;60.25;101750.88;10443395;28;20064;-77
2022/06/28 03:06:00;;;;;;;4.78;3.58;;;;;;;21.18;58.73;101742.38;10418034;28;20050;-77
2022/06/28 03:11:02;;;;;;;3.45;3.08;;;;;;;21.16;58.19;101741.84;10474531;28;20463;-76
2022/06/28 03:16:04;;;;;;;3.90;3.08;;;;;;;21.20;58.04;101731.69;10489825;28;20041;-77
2022/06/28 03:21:07;;;;;;;4.72;3.03;;;;;;;21.54;57.51;101742.09;10468841;28;20056;-77
2022/06/28 03:26:09;;;;;;;3.88;3.00;;;;;;;21.32;57.27;101743.03;10518641;28;20047;-77
2022/06/28 03:31:12;;;;;;;5.05;3.10;;;;;;;21.68;56.66;101744.69;10478218;28;20041;-77
2022/06/28 03:36:15;;;;;;;2.67;1.85;;;;;;;21.63;55.99;101739.28;10484069;28;20041;-77
2022/06/28 03:41:22;;;;;;;3.80;3.00;;;;;;;21.61;55.79;101752.75;10459804;28;20037;-77
2022/06/28 03:46:30;;;;;;;2.72;2.53;;;;;;;21.71;55.81;101744.06;10502876;28;20044;-77
2022/06/28 03:51:52;;;;;;;6.07;3.10;;;;;;;21.56;55.63;101741.75;10477670;28;20056;-77
2022/06/28 03:57:00;;;;;;;4.40;3.13;;;;;;;21.61;55.01;101756.38;10471821;28;20474;-77
2022/06/28 04:02:04;;;;;;;4.65;2.95;;;;;;;21.76;54.55;101738.28;10433807;28;20052;-77
2022/06/28 04:07:06;;;;;;;5.28;2.85;;;;;;;22.26;53.69;101758.13;10465149;28;20037;-77
2022/06/28 04:12:09;;;;;;;3.35;2.90;;;;;;;22.30;53.59;101747.09;10465831;28;20067;-77
2022/06/28 04:17:12;;;;;;;3.85;2.53;;;;;;;22.71;52.69;101746.41;10454265;28;20033;-78
2022/06/28 04:22:41;;;;;;;3.15;2.67;;;;;;;23.08;51.00;101744.78;10467879;28;20044;-78
2022/06/28 04:27:43;;;;;;;4.60;2.85;;;;;;;22.95;50.84;101736.63;10437338;28;20412;-78
2022/06/28 04:32:46;;;;;;;4.43;2.70;;;;;;;23.13;51.59;101740.97;10473828;28;20522;-78
2022/06/28 04:37:50;;;;;;;4.35;2.85;;;;;;;23.35;51.08;101739.81;10464770;28;20047;-77
2022/06/28 04:43:04;;;;;;;5.05;2.45;;;;;;;23.63;50.16;101738.13;10450787;28;20057;-77
2022/06/28 04:48:07;;;;;;;2.53;2.15;;;;;;;24.06;48.78;101731.28;10450841;28;20071;-78
2022/06/28 04:53:09;;;;;;;4.88;2.15;;;;;;;24.43;47.67;101748.22;10467006;28;20503;-78
2022/06/28 04:58:11;;;;;;;4.13;2.50;;;;;;;24.64;47.04;101730.13;10469237;28;20163;-77
2022/06/28 05:03:14;;;;;;;4.60;2.10;;;;;;;24.90;46.44;101732.56;10452043;28;20072;-77
2022/06/28 05:08:39;;;;;;;5.00;2.60;;;;;;;24.89;45.08;101736.53;10465899;28;20044;-77
2022/06/28 05:13:41;;;;;;;3.63;2.58;;;;;;;24.48;45.53;101757.25;10449686;28;20037;-76
2022/06/28 05:18:47;;;;;;;3.13;1.92;;;;;;;24.15;45.95;101762.03;10456188;28;20050;-77
2022/06/28 05:23:52;;;;;;;5.70;2.28;;;;;;;23.84;46.95;101757.72;10442349;28;20060;-77
2022/06/28 05:29:03;;;;;;;2.80;2.30;;;;;;;23.49;48.22;101765.56;10448663;28;20496;-77
2022/06/28 05:34:06;;;;;;;4.30;2.17;;;;;;;23.95;47.89;101758.94;10475315;28;20056;-77
2022/06/28 05:39:08;;;;;;;2.55;1.63;;;;;;;24.48;46.82;101750.81;10473588;28;20052;-78
2022/06/28 05:44:12;;;;;;;2.78;2.40;;;;;;;25.24;46.06;101750.91;10446394;28;20045;-77
2022/06/28 05:49:14;;;;;;;3.63;2.40;;;;;;;25.59;45.71;101749.53;10454287;28;20053;-77
2022/06/28 05:54:17;;;;;;;4.15;2.15;;;;;;;25.92;44.25;101744.53;10456095;28;20442;-77
2022/06/28 05:59:19;;;;;;;7.38;2.58;;;;;;;25.67;43.60;101742.94;10444450;28;20408;-78
2022/06/28 06:04:24;;;;;;;2.95;2.15;;;;;;;25.31;44.60;101739.06;10455639;28;20040;-77
2022/06/28 06:09:27;;;;;;;3.47;2.30;;;;;;;24.86;45.73;101742.88;10478135;28;20049;-78
2022/06/28 06:14:29;;;;;;;3.92;2.45;;;;;;;25.05;45.34;101744.28;10442480;28;20132;-77
2022/06/28 06:19:32;;;;;;;2.97;2.03;;;;;;;25.03;45.14;101752.25;10487524;28;20045;-77
2022/06/28 06:24:34;;;;;;;4.13;2.50;;;;;;;25.01;44.43;101746.16;10463531;28;20045;-78
2022/06/28 06:29:43;;;;;;;4.35;2.05;;;;;;;25.23;44.62;101756.91;10438223;28;20045;-77
2022/06/28 06:34:53;;;;;;;2.75;2.50;;;;;;;25.70;44.44;101747.91;10464082;28;20053;-77
2022/06/28 06:39:56;;;;;;;2.15;1.95;;;;;;;26.37;42.89;101751.78;10455693;28;20044;-78
2022/06/28 06:44:58;;;;;;;6.10;2.60;;;;;;;26.99;41.25;101750.94;10468630;28;20045;-78
2022/06/28 06:50:07;;;;;;;5.70;2.15;;;;;;;27.30;41.04;101758.53;10461392;28;20056;-78
2022/06/28 06:55:10;;;;;;;3.17;2.25;;;;;;;27.27;40.70;101758.47;10486658;28;20045;-79
2022/06/28 07:00:14;;;;;;;5.10;1.98;;;;;;;26.79;41.63;101754.88;10431328;28;20056;-78
2022/06/28 07:05:17;;;;;;;2.50;1.95;;;;;;;26.34;42.02;101773.00;10461228;28;20033;-77
2022/06/28 07:10:19;;;;;;;4.25;2.08;;;;;;;25.70;44.19;101784.47;10464211;28;20057;-77
2022/06/28 07:15:22;;;;;;;4.18;1.58;;;;;;;25.23;44.40;101776.56;10442572;28;20045;-78
2022/06/28 07:20:24;;;;;;;4.22;1.50;;;;;;;25.59;44.45;101778.47;10435056;28;20037;-77
2022/06/28 07:25:26;;;;;;;4.22;2.00;;;;;;;25.64;43.48;101766.97;10416171;28;20045;-77
2022/06/28 07:30:29;;;;;;;3.15;2.00;;;;;;;25.63;43.50;101792.63;10455423;28;20041;-77
2022/06/28 07:35:32;;;;;;;3.45;1.80;;;;;;;25.94;44.14;101784.34;10459356;28;20045;-77
2022/06/28 07:40:36;;;;;;;6.43;2.28;;;;;;;25.97;43.80;101791.25;10461770;28;20061;-78
2022/06/28 07:46:07;;;;;;;6.22;1.33;;;;;;;25.66;43.96;101789.09;10427442;28;20046;-76
2022/06/28 07:56:51;;;;;;;3.58;1.80;;;;;;;25.73;44.04;101790.19;10402187;28;20049;-81
2022/06/28 08:01:53;;;;;;;5.07;1.52;;;;;;;25.62;43.63;101793.81;10449772;28;20060;-82
2022/06/28 08:07:04;;;;;;;4.90;2.05;;;;;;;25.47;42.66;101799.00;10456452;28;20033;-80
2022/06/28 08:12:07;;;;;;;3.60;1.75;;;;;;;25.62;41.75;101797.44;10479009;28;20427;-80
2022/06/28 08:17:10;;;;;;;1.83;1.52;;;;;;;26.30;42.28;101807.84;10453279;28;20040;-82
2022/06/28 08:22:12;;;;;;;2.55;1.90;;;;;;;26.84;40.63;101804.47;10457241;28;20048;-79
2022/06/28 08:27:15;;;;;;;5.90;2.20;;;;;;;27.38;39.84;101812.25;10467606;28;20519;-80
2022/06/28 08:32:20;;;;;;;2.85;1.70;;;;;;;27.24;39.30;101802.28;10422287;28;20045;-80
2022/06/28 08:37:22;;;;;;;7.82;2.00;;;;;;;26.73;40.13;101815.50;10469465;28;20044;-81
2022/06/28 08:42:27;;;;;;;2.13;1.55;;;;;;;26.42;40.03;101811.47;10433593;28;20049;-81
2022/06/28 08:47:33;;;;;;;1.70;1.42;;;;;;;26.47;40.46;101807.56;10462383;28;20041;-81
2022/06/28 08:52:36;;;;;;;2.03;1.83;;;;;;;26.44;41.04;101811.09;10464502;28;20515;-81
2022/06/28 08:57:41;;;;;;;6.78;1.90;;;;;;;26.45;42.27;101804.28;10460418;28;20500;-80
2022/06/28 09:02:47;;;;;;;3.00;2.00;;;;;;;25.88;43.53;101813.91;10467367;28;20036;-80
2022/06/28 09:07:50;;;;;;;2.67;1.98;;;;;;;25.73;44.14;101820.28;10466302;28;20037;-82
2022/06/28 09:13:10;;;;;;;2.47;1.77;;;;;;;25.86;43.54;101816.28;10431934;28;20704;-87
2022/06/28 09:18:12;;;;;;;2.60;1.90;;;;;;;26.02;43.20;101813.50;10463831;28;20044;-85
2022/06/28 09:23:28;;;;;;;5.18;1.98;;;;;;;25.99;43.62;101815.03;10482666;28;20040;-80
2022/06/28 09:28:31;;;;;;;1.60;1.50;;;;;;;26.27;40.77;101829.09;10476231;28;20040;-83
2022/06/28 09:33:34;;;;;;;2.03;1.70;;;;;;;26.23;41.01;101814.13;10434915;28;20052;-84
2022/06/28 09:38:37;;;;;;;4.85;2.08;;;;;;;25.88;42.60;101821.53;10468276;28;20042;-84
2022/06/28 09:43:40;;;;;;;6.25;2.53;;;;;;;25.31;41.78;101808.50;10429440;28;20057;-84
2022/06/28 09:48:42;;;;;;;5.47;2.28;;;;;;;25.17;43.33;101811.69;10454826;28;20122;-84
2022/06/28 09:53:45;;;;;;;2.83;2.35;;;;;;;25.12;45.40;101797.88;10440336;28;20045;-82
2022/06/28 09:58:49;;;;;;;3.45;1.77;;;;;;;25.05;46.67;101798.47;10436720;28;20049;-79
2022/06/28 10:03:53;;;;;;;2.30;1.55;;;;;;;24.90;46.96;101802.75;10460931;28;20049;-77
2022/06/28 10:08:58;;;;;;;6.22;2.00;;;;;;;24.95;46.15;101794.09;10453479;28;20052;-79
2022/06/28 10:19:23;;;;;;;3.85;2.22;;;;;;;24.68;46.25;101792.00;10452640;28;20412;-82
2022/06/28 10:24:49;;;;;;;2.67;1.77;;;;;;;24.60;46.79;101778.88;10448181;28;20057;-82
2022/06/28 10:30:00;;;;;;;1.60;1.50;;;;;;;24.63;45.25;101795.00;10461307;28;20041;-84
2022/06/28 10:35:05;;;;;;;5.13;1.77;;;;;;;24.69;45.92;101770.34;10470604;28;20033;-82
2022/06/28 10:40:22;;;;;;;6.82;1.67;;;;;;;24.64;47.35;101766.63;10418621;28;20056;-83
2022/06/28 10:46:03;;;;;;;1.90;1.75;;;;;;;24.54;47.13;101792.31;10465929;28;20041;-81
2022/06/28 10:51:05;;;;;;;3.17;1.83;;;;;;;24.46;48.27;101767.97;10445121;28;20048;-84
2022/06/28 10:56:14;;;;;;;3.90;1.60;;;;;;;24.28;48.25;101797.34;10478872;28;20033;-78
2022/06/28 11:01:18;;;;;;;1.55;1.45;;;;;;;24.17;47.03;101799.78;10456688;28;20060;-79
2022/06/28 11:06:21;;;;;;;6.22;1.90;;;;;;;24.13;47.49;101770.81;10441883;28;20542;-79
2022/06/28 11:11:28;;;;;;;5.35;2.00;;;;;;;24.08;46.64;101778.59;10468478;28;20037;-86
2022/06/28 11:16:47;;;;;;;2.17;1.98;;;;;;;24.02;47.60;101772.41;10455329;28;20056;-82
2022/06/28 11:21:56;;;;;;;3.80;2.10;;;;;;;24.15;47.32;101760.06;10484024;28;20049;-82
2022/06/28 11:27:21;;;;;;;2.33;1.70;;;;;;;24.23;47.11;101781.56;10488071;28;20721;-83
2022/06/28 11:32:35;;;;;;;1.70;1.52;;;;;;;24.01;47.23;101763.16;10474369;28;20029;-81
2022/06/28 11:38:06;;;;;;;2.08;1.52;;;;;;;23.95;47.39;101755.28;10489939;28;20041;-80
2022/06/28 11:43:09;;;;;;;2.08;1.50;;;;;;;23.96;45.46;101756.97;10467351;28;20411;-79
2022/06/28 11:48:12;;;;;;;2.00;1.80;;;;;;;23.95;45.30;101756.16;10486790;28;20044;-82
2022/06/28 11:53:16;;;;;;;3.05;1.45;;;;;;;23.95;44.83;101749.69;10463201;28;20053;-82
2022/06/28 11:58:38;;;;;;;5.65;2.10;;;;;;;24.08;44.66;101750.56;10472036;28;20033;-83
2022/06/28 12:03:43;;;;;;;7.40;1.85;;;;;;;24.15;45.46;101745.22;10462297;28;20040;-77
2022/06/28 12:08:57;;;;;;;1.25;1.10;;;;;;;23.97;46.62;101767.81;10478770;28;20037;-79
2022/06/28 12:14:05;;;;;;;4.93;2.53;;;;;;;23.82;46.71;101764.84;10459007;28;20033;-83
2022/06/28 12:19:29;;;;;;;2.85;2.42;;;;;;;23.82;47.33;101748.03;10445528;28;20048;-77
2022/06/28 12:24:42;;;;;;;4.53;1.60;;;;;;;23.91;47.83;101745.94;10469236;28;20063;-79
2022/06/28 12:29:44;;;;;;;1.48;1.38;;;;;;;23.96;47.46;101766.19;10470719;28;20075;-78
2022/06/28 12:34:47;;;;;;;1.90;1.52;;;;;;;23.90;48.66;101758.31;10470515;28;20566;-78
2022/06/28 12:39:49;;;;;;;2.05;1.70;;;;;;;23.94;47.95;101756.47;10471697;28;20424;-79
2022/06/28 12:44:52;;;;;;;2.50;1.88;;;;;;;23.88;48.57;101763.47;10461245;28;20471;-77
2022/06/28 12:49:59;;;;;;;3.83;2.10;;;;;;;23.92;48.84;101765.22;10461578;28;20041;-77
2022/06/28 12:55:03;;;;;;;6.97;2.03;;;;;;;23.80;48.73;101745.56;10445805;28;20416;-77
2022/06/28 13:00:09;;;;;;;2.10;1.20;;;;;;;23.82;48.59;101760.06;10442372;28;20038;-77
2022/06/28 13:05:12;;;;;;;3.43;1.80;;;;;;;23.79;49.56;101743.09;10444421;28;20045;-77
2022/06/28 13:10:17;;;;;;;2.53;1.80;;;;;;;23.99;48.84;101759.06;10428219;28;20041;-78
2022/06/28 13:15:21;;;;;;;1.50;1.40;;;;;;;23.92;48.68;101759.59;10449408;28;20041;-77
2022/06/28 13:20:24;;;;;;;1.80;0.82;;;;;;;23.99;48.25;101764.69;10458521;28;20578;-78
2022/06/28 13:25:26;;;;;;;2.45;1.08;;;;;;;23.98;48.39;101758.25;10463096;28;20045;-78
2022/06/28 13:30:29;;;;;;;1.88;1.70;;;;;;;23.91;49.03;101751.53;10479152;28;20048;-77
2022/06/28 13:35:31;;;;;;;1.33;1.23;;;;;;;23.92;48.76;101761.59;10452225;28;20518;-78
2022/06/28 13:40:34;;;;;;;2.35;1.67;;;;;;;23.97;48.20;101779.03;10485478;28;20443;-78
2022/06/28 13:45:36;;;;;;;2.08;1.05;;;;;;;23.85;48.86;101752.94;10455736;28;20041;-78
2022/06/28 13:50:38;;;;;;;1.80;1.50;;;;;;;23.73;47.81;101773.31;10426163;28;20068;-78
2022/06/28 13:55:42;;;;;;;0.35;0.35;;;;;;;23.73;48.24;101782.53;10460372;28;20055;-78
2022/06/28 14:00:45;;;;;;;1.85;1.60;;;;;;;23.76;47.86;101790.25;10495790;28;20051;-78
2022/06/28 14:05:47;;;;;;;1.75;1.27;;;;;;;23.65;46.95;101796.63;10466527;28;20045;-78
2022/06/28 14:10:51;;;;;;;3.78;1.48;;;;;;;23.51;47.21;101788.47;10483247;28;20049;-76
2022/06/28 14:15:54;;;;;;;2.92;1.40;;;;;;;23.51;47.18;101793.25;10485186;28;20049;-76
2022/06/28 14:20:56;;;;;;;1.65;1.48;;;;;;;23.42;47.00;101794.13;10475485;28;20497;-75
2022/06/28 14:25:59;;;;;;;2.70;1.23;;;;;;;23.48;46.79;101774.31;10483841;28;20061;-75
2022/06/28 14:31:01;;;;;;;3.25;1.15;;;;;;;23.55;46.58;101783.00;10487450;28;20522;-75
2022/06/28 14:36:05;;;;;;;1.17;1.08;;;;;;;23.50;46.45;101786.81;10491652;28;20041;-76
2022/06/28 14:41:08;;;;;;;2.67;1.77;;;;;;;23.39;46.26;101777.19;10492863;28;20048;-77
2022/06/28 14:46:10;;;;;;;1.35;1.20;;;;;;;23.29;46.23;101780.41;10489377;28;20033;-78
2022/06/28 14:51:13;;;;;;;2.22;1.50;;;;;;;23.17;46.35;101767.94;10485943;28;20037;-77
2022/06/28 14:56:15;;;;;;;1.30;1.20;;;;;;;23.19;45.54;101769.56;10481332;28;20416;-78
2022/06/28 15:01:18;;;;;;;2.00;1.17;;;;;;;23.09;45.90;101777.22;10456360;28;20073;-77
2022/06/28 15:06:20;;;;;;;1.17;1.08;;;;;;;23.13;46.23;101750.19;10459189;28;20037;-77
2022/06/28 15:11:23;;;;;;;1.23;1.13;;;;;;;23.25;46.02;101754.19;10463356;28;20037;-76
2022/06/28 15:16:26;;;;;;;3.65;1.33;;;;;;;23.38;45.45;101739.13;10486700;28;20045;-77
2022/06/28 15:32:11;;;;;;;1.63;1.25;;;;;;;23.16;44.97;101731.88;10471423;28;20038;-81
2022/06/28 15:37:13;;;;;;;2.60;1.35;;;;;;;23.11;45.01;101726.50;10471140;28;20419;-81
2022/06/28 15:42:15;;;;;;;2.90;1.17;;;;;;;22.99;44.89;101727.22;10484630;28;20088;-80
2022/06/28 15:47:18;;;;;;;3.13;1.33;;;;;;;22.84;45.58;101711.00;10473767;28;20037;-80
2022/06/28 15:52:20;;;;;;;1.25;1.15;;;;;;;22.75;45.55;101715.81;10463772;28;20496;-81
2022/06/28 15:57:22;;;;;;;1.17;0.95;;;;;;;22.68;45.89;101719.13;10467983;28;20045;-81
2022/06/28 16:02:25;;;;;;;1.38;1.25;;;;;;;22.63;45.76;101710.09;10487522;28;20040;-80
2022/06/28 16:07:27;;;;;;;2.30;1.33;;;;;;;22.67;44.85;101708.28;10482697;28;20526;-81
2022/06/28 16:17:51;;;;;;;2.58;0.90;;;;;;;22.52;45.14;101707.66;10466350;28;20045;-78
2022/06/28 16:22:53;;;;;;;1.17;0.70;;;;;;;22.58;44.18;101694.34;10469169;28;20542;-78
2022/06/28 16:27:56;;;;;;;5.18;1.33;;;;;;;22.54;44.45;101691.38;10470319;28;20036;-77
2022/06/28 16:32:58;;;;;;;0.73;0.73;;;;;;;22.51;44.12;101691.22;10479348;28;20558;-73
2022/06/28 16:38:02;;;;;;;1.58;0.82;;;;;;;22.42;44.23;101682.91;10476149;28;20048;-74
2022/06/28 16:43:05;;;;;;;2.42;1.15;;;;;;;22.22;44.26;101680.84;10468377;28;20049;-75
2022/06/28 16:48:07;;;;;;;0.70;0.70;;;;;;;22.02;45.07;101671.16;10460153;28;20045;-77
2022/06/28 16:53:09;;;;;;;3.00;2.00;;;;;;;21.94;45.11;101678.44;10452860;28;20200;-75
2022/06/28 16:58:12;;;;;;;4.63;1.15;;;;;;;21.90;45.33;101674.66;10477735;28;20040;-75
2022/06/28 17:03:16;;;;;;;3.58;1.17;;;;;;;21.83;45.15;101654.78;10477726;28;20056;-75
2022/06/28 17:08:18;;;;;;;1.23;1.00;;;;;;;21.81;45.35;101643.13;10473393;28;20033;-76
2022/06/28 17:13:21;;;;;;;1.10;1.00;;;;;;;21.82;45.11;101677.47;10461635;28;20040;-77
2022/06/28 17:18:24;;;;;;;1.90;1.35;;;;;;;21.75;45.19;101660.41;10465668;28;20041;-76
2022/06/28 17:23:26;;;;;;;1.27;0.98;;;;;;;21.76;45.34;101679.63;10469653;28;20070;-75
2022/06/28 17:28:28;;;;;;;2.35;1.88;;;;;;;21.73;45.28;101680.28;10484344;28;20056;-74
2022/06/28 17:33:30;;;;;;;1.05;0.98;;;;;;;21.69;45.05;101679.28;10485834;28;20060;-75
2022/06/28 17:38:33;;;;;;;0.93;0.93;;;;;;;21.50;45.82;101654.50;10485413;28;20040;-76
2022/06/28 17:43:35;;;;;;;1.70;1.30;;;;;;;21.47;46.26;101671.09;10427246;28;20046;-75
2022/06/28 17:48:37;;;;;;;1.48;0.80;;;;;;;21.40;46.43;101676.38;10485102;28;20044;-75
2022/06/28 17:53:40;;;;;;;4.93;1.35;;;;;;;21.36;46.53;101687.41;10438992;28;20072;-76
2022/06/28 17:58:43;;;;;;;1.40;1.27;;;;;;;21.25;46.61;101689.69;10442991;28;20167;-76
2022/06/28 18:03:45;;;;;;;1.50;1.25;;;;;;;21.20;46.62;101700.16;10459762;28;20500;-77
2022/06/28 18:08:51;;;;;;;3.25;1.50;;;;;;;21.11;47.34;101697.34;10452812;28;20037;-77
2022/06/28 18:13:53;;;;;;;0.93;0.90;;;;;;;21.02;47.44;101702.13;10452379;28;20041;-77
2022/06/28 18:18:56;;;;;;;2.65;1.15;;;;;;;20.96;47.90;101717.34;10452159;28;20056;-75
2022/06/28 18:23:58;;;;;;;2.22;1.30;;;;;;;20.90;47.92;101713.91;10452060;28;20045;-77
2022/06/28 18:29:00;;;;;;;1.52;1.30;;;;;;;20.87;48.04;101719.31;10463300;28;20057;-77
2022/06/28 18:34:03;;;;;;;1.10;1.00;;;;;;;20.80;48.27;101722.56;10451283;28;20052;-76
2022/06/28 18:39:05;;;;;;;0.85;0.85;;;;;;;20.77;49.05;101721.25;10455711;28;20431;-85
2022/06/28 18:44:07;;;;;;;0.80;0.55;;;;;;;20.69;49.35;101716.47;10451324;28;20049;-84
2022/06/28 18:49:09;;;;;;;1.98;1.05;;;;;;;20.55;49.64;101726.91;10451401;28;20046;-81
2022/06/28 18:54:12;;;;;;;1.52;1.17;;;;;;;20.49;50.09;101727.41;10452176;28;20045;-82
2022/06/28 18:59:14;;;;;;;3.50;1.42;;;;;;;20.38;50.80;101741.56;10451819;28;20048;-81
2022/06/28 19:04:17;;;;;;;1.35;0.98;;;;;;;20.27;50.83;101754.13;10450433;28;20419;-81
2022/06/28 19:09:21;;;;;;;2.10;1.50;;;;;;;20.17;51.36;101746.06;10432769;28;20044;-81
2022/06/28 19:14:24;;;;;;;1.58;1.05;;;;;;;20.09;51.76;101750.41;10451037;28;20042;-80
2022/06/28 19:19:26;;;;;;;2.58;1.38;;;;;;;20.02;52.11;101758.41;10449820;28;20056;-80
2022/06/28 19:24:29;;;;;;;4.70;1.33;;;;;;;19.96;52.36;101750.50;10453473;28;20058;-80
2022/06/28 19:29:31;;;;;;;5.90;1.38;;;;;;;19.85;52.34;101755.50;10449993;28;20419;-81
2022/06/28 19:34:34;;;;;;;1.77;1.38;;;;;;;19.80;53.12;101755.66;10470281;28;20043;-81
2022/06/28 19:39:36;;;;;;;1.58;1.17;;;;;;;19.66;53.40;101757.66;10466277;28;20053;-82
2022/06/28 19:44:38;;;;;;;2.25;1.10;;;;;;;19.63;53.62;101755.50;10431780;28;20049;-81
2022/06/28 19:49:40;;;;;;;1.80;1.05;;;;;;;19.60;53.79;101775.63;10449786;28;20057;-81
2022/06/28 19:54:43;;;;;;;1.75;1.13;;;;;;;19.58;54.12;101770.34;10449417;28;20401;-80
2022/06/28 19:59:46;;;;;;;1.27;0.80;;;;;;;19.60;54.19;101767.25;10431617;28;20037;-81
2022/06/28 20:04:48;;;;;;;0.90;0.70;;;;;;;19.62;54.32;101767.78;10430823;28;20049;-81
2022/06/28 20:09:53;;;;;;;1.23;0.95;;;;;;;19.61;54.83;101777.25;10448954;28;20049;-80
2022/06/28 20:14:55;;;;;;;0.90;0.77;;;;;;;19.57;54.58;101777.88;10481392;28;20045;-81
2022/06/28 20:19:58;;;;;;;1.75;1.38;;;;;;;19.53;55.04;101771.28;10488977;28;20044;-81
2022/06/28 20:25:02;;;;;;;4.13;1.10;;;;;;;19.46;55.60;101770.91;10484155;28;20511;-79
2022/06/28 20:30:04;;;;;;;2.13;1.60;;;;;;;19.46;55.50;101754.19;10488485;28;20060;-80
2022/06/28 20:35:07;;;;;;;4.80;1.15;;;;;;;19.50;55.65;101769.13;10483095;28;20060;-78
2022/06/28 20:40:11;;;;;;;2.03;1.02;;;;;;;19.45;55.80;101766.47;10487622;28;20060;-79
2022/06/28 20:45:14;;;;;;;1.08;0.88;;;;;;;19.44;55.84;101758.44;10483540;28;20051;-80
2022/06/28 20:50:16;;;;;;;2.20;1.30;;;;;;;19.47;56.11;101769.75;10470054;28;20060;-77
2022/06/28 20:55:18;;;;;;;4.90;1.13;;;;;;;19.48;55.80;101765.84;10470722;28;20041;-77
2022/06/28 21:00:21;;;;;;;0.77;0.70;;;;;;;19.41;56.26;101759.84;10470104;28;20049;-75
2022/06/28 21:05:23;;;;;;;0.50;0.50;;;;;;;19.33;56.17;101760.63;10469357;28;20059;-80
2022/06/28 21:10:25;;;;;;;1.67;1.23;;;;;;;19.25;56.62;101772.47;10475358;28;20037;-79
2022/06/28 21:15:28;;;;;;;0.60;0.60;;;;;;;19.28;56.13;101763.53;10477011;28;20040;-77
2022/06/28 21:20:30;;;;;;;1.60;0.95;;;;;;;19.21;55.98;101766.72;10483135;28;20049;-75
2022/06/28 21:25:33;;;;;;;0.40;0.40;;;;;;;19.25;56.27;101764.94;10445289;28;20052;-78
2022/06/28 21:30:35;;;;;;;3.63;1.63;;;;;;;19.32;55.42;101772.88;10456696;28;20076;-77
2022/06/28 21:35:38;;;;;;;1.25;0.75;;;;;;;19.42;55.21;101791.31;10470658;28;20416;-77
2022/06/28 21:40:41;;;;;;;2.00;1.17;;;;;;;19.38;54.99;101771.63;10474808;28;20049;-77
2022/06/28 21:45:43;;;;;;;0.98;0.80;;;;;;;19.39;55.10;101770.50;10483484;28;20045;-76
2022/06/28 21:50:45;;;;;;;1.23;0.70;;;;;;;19.49;54.18;101775.84;10485850;28;20048;-80
2022/06/28 21:55:48;;;;;;;1.15;1.00;;;;;;;19.49;54.44;101767.47;10486284;28;20053;-77
2022/06/28 22:00:50;;;;;;;0.82;0.80;;;;;;;19.60;53.86;101778.41;10472194;28;20045;-79
2022/06/28 22:05:53;;;;;;;2.13;1.00;;;;;;;19.72;53.17;101773.91;10485151;28;20393;-78
2022/06/28 22:10:55;;;;;;;0.85;0.85;;;;;;;19.69;53.13;101782.91;10480956;28;20048;-80
2022/06/28 22:15:57;;;;;;;0.73;0.70;;;;;;;19.59;53.19;101766.44;10448334;28;20052;-78
2022/06/28 22:21:00;;;;;;;1.30;1.10;;;;;;;19.44;53.37;101767.59;10450129;28;20041;-76
2022/06/28 22:26:02;;;;;;;1.10;0.60;;;;;;;19.35;53.40;101763.91;10483848;28;20048;-76
2022/06/28 22:31:05;;;;;;;1.02;0.82;;;;;;;19.13;53.41;101772.22;10476933;28;20201;-76
2022/06/28 22:36:07;;;;;;;1.40;1.08;;;;;;;18.83;53.95;101774.47;10480496;28;20049;-76
2022/06/28 22:41:10;;;;;;;1.85;0.98;;;;;;;18.59;54.10;101768.28;10482796;28;20048;-76
2022/06/28 22:46:12;;;;;;;1.10;0.88;;;;;;;18.52;54.79;101757.53;10485126;28;20555;-76
2022/06/28 22:51:14;;;;;;;3.15;1.23;;;;;;;18.47;55.30;101745.72;10449344;28;20041;-75
2022/06/28 22:56:17;;;;;;;0.50;0.43;;;;;;;18.38;54.90;101759.47;10492074;28;20049;-76
2022/06/28 23:01:19;;;;;;;1.25;0.95;;;;;;;18.23;54.89;101738.38;10492143;28;20056;-76
2022/06/28 23:06:22;;;;;;;0.90;0.80;;;;;;;18.22;55.02;101744.22;10486322;28;20056;-76
2022/06/28 23:11:24;;;;;;;2.22;1.10;;;;;;;18.22;55.05;101750.63;10489217;28;20500;-76
2022/06/28 23:16:26;;;;;;;1.35;0.77;;;;;;;18.05;55.11;101742.88;10457942;28;20056;-75
2022/06/28 23:21:30;;;;;;;1.75;1.02;;;;;;;17.88;55.42;101753.72;10481097;28;20056;-80
2022/06/28 23:26:32;;;;;;;1.50;1.30;;;;;;;17.82;55.83;101754.09;10478152;28;20068;-79
2022/06/28 23:31:34;;;;;;;1.40;1.20;;;;;;;17.88;55.68;101741.78;10486366;28;20056;-80
2022/06/28 23:36:37;;;;;;;1.38;1.00;;;;;;;17.91;55.33;101741.19;10485958;28;20127;-79
2022/06/28 23:41:39;;;;;;;3.45;1.50;;;;;;;17.86;55.34;101755.94;10504958;28;20055;-80
2022/06/28 23:46:41;;;;;;;0.95;0.80;;;;;;;17.73;55.90;101765.91;10465978;28;20048;-79
2022/06/28 23:51:44;;;;;;;1.23;1.13;;;;;;;17.87;55.46;101756.78;10465325;28;20049;-76